createdAt,value
2022-12-07T00:00:22.544Z,4.93
2022-12-07T00:03:10.362Z,5.07
2022-12-07T00:05:59.431Z,5.40
2022-12-07T00:08:46.285Z,5.63
2022-12-07T00:11:32.349Z,4.87
2022-12-07T00:14:18.971Z,5.43
2022-12-07T00:17:05.107Z,4.70
2022-12-07T00:19:52.818Z,5.13
2022-12-07T00:22:39.356Z,4.43
2022-12-07T00:25:25.893Z,4.77
2022-12-07T00:28:12.252Z,6.13
2022-12-07T00:31:01.844Z,6.23
2022-12-07T00:33:48.150Z,5.37
2022-12-07T00:36:35.754Z,4.50
2022-12-07T00:39:21.867Z,5.77
2022-12-07T00:42:08.403Z,5.67
2022-12-07T00:44:54.732Z,6.30
2022-12-07T00:47:41.068Z,5.70
2022-12-07T00:50:27.449Z,7.20
2022-12-07T00:53:15.497Z,5.23
2022-12-07T00:56:06.655Z,6.53
2022-12-07T00:58:53.869Z,5.57
2022-12-07T01:01:40.621Z,6.67
2022-12-07T01:04:27.153Z,6.43
2022-12-07T01:07:13.508Z,6.63
2022-12-07T01:10:01.611Z,6.07
2022-12-07T01:12:48.149Z,7.70
2022-12-07T01:15:34.594Z,6.67
2022-12-07T01:18:21.018Z,6.00
2022-12-07T01:21:08.623Z,6.03
2022-12-07T01:23:54.960Z,6.17
2022-12-07T01:26:42.952Z,5.13
2022-12-07T01:29:29.372Z,6.53
2022-12-07T01:32:15.879Z,6.70
2022-12-07T01:35:02.228Z,7.20
2022-12-07T01:37:48.937Z,6.93
2022-12-07T01:40:35.501Z,5.27
2022-12-07T01:43:24.743Z,5.00
2022-12-07T01:46:11.398Z,4.60
2022-12-07T01:48:57.906Z,5.17
2022-12-07T01:51:45.668Z,6.57
2022-12-07T01:54:32.947Z,4.87
2022-12-07T01:57:19.724Z,5.17
2022-12-07T02:00:08.657Z,4.97
2022-12-07T02:02:57.687Z,5.70
2022-12-07T02:05:44.943Z,4.30
2022-12-07T02:08:31.122Z,6.27
2022-12-07T02:11:17.762Z,4.37
2022-12-07T02:14:04.259Z,4.70
2022-12-07T02:16:59.449Z,4.63
2022-12-07T02:20:12.950Z,4.70
2022-12-07T02:23:27.226Z,4.03
2022-12-07T02:26:25.519Z,5.53
2022-12-07T02:29:25.010Z,4.07
2022-12-07T02:32:14.739Z,4.80
2022-12-07T02:35:03.865Z,4.20
2022-12-07T02:37:55.214Z,4.17
2022-12-07T02:40:43.407Z,4.10
2022-12-07T02:43:30.842Z,4.90
2022-12-07T02:46:21.089Z,3.60
2022-12-07T02:49:07.779Z,4.30
2022-12-07T02:51:54.497Z,4.87
2022-12-07T02:54:41.113Z,5.83
2022-12-07T02:57:35.141Z,4.33
2022-12-07T03:00:22.168Z,5.23
2022-12-07T03:03:12.483Z,5.07
2022-12-07T03:06:06.716Z,5.07
2022-12-07T03:08:56.372Z,4.50
2022-12-07T03:11:47.392Z,5.30
2022-12-07T03:14:36.648Z,3.77
2022-12-07T03:17:25.075Z,4.90
2022-12-07T03:20:15.250Z,6.30
2022-12-07T03:23:01.710Z,7.23
2022-12-07T03:25:49.663Z,6.37
2022-12-07T03:28:38.426Z,5.13
2022-12-07T03:31:26.239Z,3.20
2022-12-07T03:34:15.494Z,4.57
2022-12-07T03:37:05.936Z,4.97
2022-12-07T03:39:57.460Z,3.90
2022-12-07T03:42:44.403Z,5.27
2022-12-07T03:45:35.221Z,4.50
2022-12-07T03:48:25.384Z,5.20
2022-12-07T03:51:15.496Z,5.53
2022-12-07T03:54:07.774Z,4.03
2022-12-07T03:56:55.085Z,4.53
2022-12-07T03:59:41.660Z,3.30
2022-12-07T04:02:29.004Z,3.70
2022-12-07T04:05:15.851Z,4.40
2022-12-07T04:08:02.629Z,3.43
2022-12-07T04:10:50.340Z,4.50
2022-12-07T04:13:56.883Z,4.50
2022-12-07T04:16:46.216Z,4.07
2022-12-07T04:19:34.024Z,4.40
2022-12-07T04:22:20.103Z,4.50
2022-12-07T04:25:07.275Z,4.83
2022-12-07T04:27:55.042Z,3.73
2022-12-07T04:30:41.426Z,3.57
2022-12-07T04:33:27.577Z,4.40
2022-12-07T04:36:14.069Z,4.37
2022-12-07T04:39:00.655Z,3.67
2022-12-07T04:41:47.209Z,3.23
2022-12-07T04:44:34.945Z,6.53
2022-12-07T04:47:21.187Z,3.67
2022-12-07T04:50:08.237Z,4.73
2022-12-07T04:52:54.540Z,4.77
2022-12-07T04:55:41.057Z,4.40
2022-12-07T04:58:27.286Z,5.07
2022-12-07T05:01:15.085Z,4.40
2022-12-07T05:04:01.703Z,4.47
2022-12-07T05:06:48.166Z,4.43
2022-12-07T05:09:34.606Z,4.87
2022-12-07T05:12:20.936Z,5.20
2022-12-07T05:15:07.370Z,4.77
2022-12-07T05:17:55.139Z,5.60
2022-12-07T05:20:42.777Z,5.33
2022-12-07T05:23:29.157Z,6.63
2022-12-07T05:26:15.654Z,9.43
2022-12-07T05:29:02.372Z,8.50
2022-12-07T05:31:48.974Z,7.37
2022-12-07T05:34:37.026Z,16.50
2022-12-07T05:37:23.597Z,7.87
2022-12-07T05:40:10.672Z,12.80
2022-12-07T05:43:02.673Z,11.27
2022-12-07T05:45:50.954Z,13.40
2022-12-07T05:48:37.671Z,14.93
2022-12-07T05:51:25.045Z,12.23
2022-12-07T05:54:11.683Z,9.63
2022-12-07T05:56:57.855Z,12.83
2022-12-07T05:59:43.077Z,45.03
2022-12-07T06:02:29.669Z,33.73
2022-12-07T06:05:16.097Z,28.90
2022-12-07T06:08:06.058Z,17.00
2022-12-07T06:11:12.887Z,29.93
2022-12-07T06:13:58.241Z,35.23
2022-12-07T06:16:44.903Z,10.70
2022-12-07T06:19:31.464Z,7.27
2022-12-07T06:22:18.532Z,20.70
2022-12-07T06:25:08.935Z,8.70
2022-12-07T06:27:56.343Z,6.63
2022-12-07T06:30:42.854Z,8.43
2022-12-07T06:33:29.652Z,11.00
2022-12-07T06:36:16.391Z,8.77
2022-12-07T06:39:02.671Z,8.83
2022-12-07T06:41:50.404Z,8.47
2022-12-07T06:44:36.972Z,5.13
2022-12-07T06:50:29.511Z,9.50
2022-12-07T06:53:15.889Z,8.50
2022-12-07T06:56:02.178Z,7.60
2022-12-07T06:58:50.524Z,7.50
2022-12-07T07:01:37.572Z,4.57
2022-12-07T07:04:24.829Z,6.43
2022-12-07T07:07:11.707Z,5.03
2022-12-07T07:09:58.214Z,4.93
2022-12-07T07:12:44.728Z,5.60
2022-12-07T07:15:32.654Z,7.17
2022-12-07T07:18:19.170Z,6.37
2022-12-07T07:21:05.780Z,4.40
2022-12-07T07:23:53.020Z,8.00
2022-12-07T07:26:39.168Z,7.47
2022-12-07T07:29:25.515Z,5.47
2022-12-07T07:32:13.294Z,7.83
2022-12-07T07:34:59.517Z,25.00
2022-12-07T07:37:46.038Z,9.63
2022-12-07T07:40:32.412Z,6.67
2022-12-07T07:43:19.090Z,6.40
2022-12-07T07:46:05.748Z,5.03
2022-12-07T07:48:54.484Z,5.50
2022-12-07T07:51:40.651Z,5.93
2022-12-07T07:54:27.766Z,6.07
2022-12-07T07:57:14.278Z,6.00
2022-12-07T08:00:00.903Z,5.97
2022-12-07T08:02:47.606Z,7.23
2022-12-07T08:05:35.627Z,15.23
2022-12-07T08:08:21.867Z,10.00
2022-12-07T08:11:08.850Z,8.50
2022-12-07T08:13:55.334Z,7.93
2022-12-07T08:16:41.658Z,8.67
2022-12-07T08:19:28.490Z,8.43
2022-12-07T08:22:16.407Z,6.83
2022-12-07T08:25:02.474Z,8.50
2022-12-07T08:27:49.031Z,8.27
2022-12-07T08:30:35.259Z,9.80
2022-12-07T08:33:24.066Z,11.67
2022-12-07T08:36:11.269Z,10.97
2022-12-07T08:39:30.527Z,9.60
2022-12-07T08:42:06.149Z,6.67
2022-12-07T08:44:52.793Z,7.73
2022-12-07T08:47:40.346Z,6.87
2022-12-07T08:50:26.996Z,8.13
2022-12-07T08:53:13.204Z,6.97
2022-12-07T08:56:00.961Z,8.87
2022-12-07T08:58:47.633Z,8.17
2022-12-07T09:01:34.525Z,8.10
2022-12-07T09:04:21.752Z,6.80
2022-12-07T09:07:09.865Z,6.77
2022-12-07T09:09:56.773Z,7.37
2022-12-07T09:12:44.803Z,8.07
2022-12-07T09:15:32.453Z,7.43
2022-12-07T09:18:19.031Z,7.73
2022-12-07T09:21:05.539Z,6.53
2022-12-07T09:23:51.779Z,14.97
2022-12-07T09:26:40.441Z,11.93
2022-12-07T09:29:31.224Z,7.20
2022-12-07T09:32:17.847Z,7.10
2022-12-07T09:35:08.171Z,7.30
2022-12-07T09:37:54.366Z,7.10
2022-12-07T09:40:40.849Z,5.87
2022-12-07T09:43:27.559Z,7.53
2022-12-07T09:46:16.444Z,7.03
2022-12-07T09:49:02.863Z,5.97
2022-12-07T09:51:49.555Z,7.03
2022-12-07T09:54:37.564Z,7.27
2022-12-07T09:57:31.050Z,7.63
2022-12-07T10:00:18.932Z,6.97
2022-12-07T10:03:06.815Z,7.07
2022-12-07T10:05:53.610Z,7.57
2022-12-07T10:08:42.337Z,6.63
2022-12-07T10:11:28.805Z,9.77
2022-12-07T10:14:15.618Z,9.87
2022-12-07T10:17:01.830Z,8.13
2022-12-07T10:19:49.804Z,7.03
2022-12-07T10:22:36.191Z,6.93
2022-12-07T10:25:23.246Z,8.20
2022-12-07T10:28:14.458Z,8.27
2022-12-07T10:31:03.271Z,5.60
2022-12-07T10:33:53.956Z,7.30
2022-12-07T10:36:42.063Z,7.27
2022-12-07T10:39:28.555Z,7.23
2022-12-07T10:42:19.210Z,7.77
2022-12-07T10:45:16.858Z,10.93
2022-12-07T10:48:08.339Z,8.13
2022-12-07T10:51:00.848Z,6.97
2022-12-07T10:53:55.250Z,30.13
2022-12-07T10:56:51.184Z,6.70
2022-12-07T10:59:48.691Z,7.60
2022-12-07T11:02:44.283Z,8.13
2022-12-07T11:05:32.027Z,10.17
2022-12-07T11:08:24.049Z,8.93
2022-12-07T11:11:15.658Z,8.90
2022-12-07T11:14:05.493Z,15.77
2022-12-07T11:16:58.126Z,9.07
2022-12-07T11:20:01.904Z,10.93
2022-12-07T11:22:52.904Z,9.20
2022-12-07T11:25:42.007Z,6.93
2022-12-07T11:28:34.404Z,7.87
2022-12-07T11:31:29.391Z,7.33
2022-12-07T11:34:19.160Z,6.83
2022-12-07T11:37:08.050Z,6.13
2022-12-07T11:39:56.715Z,6.67
2022-12-07T11:42:46.034Z,6.00
2022-12-07T11:45:35.539Z,6.67
2022-12-07T11:48:25.111Z,6.53
2022-12-07T11:51:13.329Z,6.70
2022-12-07T11:54:02.623Z,7.13
2022-12-07T11:56:50.272Z,6.17
2022-12-07T11:59:40.746Z,6.50
2022-12-07T12:02:34.682Z,6.53
2022-12-07T12:05:23.042Z,6.77
2022-12-07T12:11:28.601Z,5.67
2022-12-07T12:17:27.108Z,5.67
2022-12-07T12:20:21.679Z,6.47
2022-12-07T12:23:09.593Z,5.73
2022-12-07T12:25:57.806Z,5.57
2022-12-07T12:28:51.595Z,8.33
2022-12-07T12:31:40.482Z,5.90
2022-12-07T12:34:34.683Z,5.70
2022-12-07T12:37:51.132Z,7.77
2022-12-07T12:40:50.793Z,4.87
2022-12-07T12:44:01.226Z,5.03
2022-12-07T12:46:50.248Z,5.97
2022-12-07T12:49:41.351Z,8.40
2022-12-07T12:52:50.689Z,5.50
2022-12-07T12:55:52.302Z,5.07
2022-12-07T12:58:44.542Z,4.37
2022-12-07T13:01:44.580Z,5.70
2022-12-07T13:04:41.824Z,4.87
2022-12-07T13:07:58.322Z,4.80
2022-12-07T13:10:46.596Z,5.33
2022-12-07T13:13:35.934Z,5.30
2022-12-07T13:16:49.471Z,5.43
2022-12-07T13:19:50.599Z,6.80
2022-12-07T13:22:41.208Z,9.43
2022-12-07T13:25:35.887Z,10.50
2022-12-07T13:28:23.093Z,7.83
2022-12-07T13:31:16.854Z,8.23
2022-12-07T13:34:04.121Z,9.23
2022-12-07T13:36:50.753Z,8.87
2022-12-07T13:39:37.474Z,9.03
2022-12-07T13:42:26.521Z,10.37
2022-12-07T13:45:22.833Z,8.27
2022-12-07T13:48:13.325Z,8.60
2022-12-07T13:51:00.657Z,8.50
2022-12-07T13:53:48.619Z,8.07
2022-12-07T13:56:36.011Z,8.10
2022-12-07T13:59:23.244Z,9.37
2022-12-07T14:02:21.502Z,9.87
2022-12-07T14:05:11.743Z,7.77
2022-12-07T14:07:59.760Z,8.20
2022-12-07T14:10:56.639Z,7.53
2022-12-07T14:13:47.334Z,8.40
2022-12-07T14:16:35.678Z,10.80
2022-12-07T14:19:43.441Z,10.33
2022-12-07T14:22:36.117Z,9.77
2022-12-07T14:25:23.569Z,11.27
2022-12-07T14:28:26.753Z,11.13
2022-12-07T14:31:20.703Z,10.70
2022-12-07T14:34:13.856Z,15.03
2022-12-07T14:37:00.374Z,11.03
2022-12-07T14:39:47.830Z,10.10
2022-12-07T14:42:35.391Z,7.87
2022-12-07T14:45:22.549Z,8.27
2022-12-07T14:54:23.835Z,13.13
2022-12-07T14:57:11.722Z,11.27
2022-12-07T14:59:58.503Z,11.13
2022-12-07T15:02:45.165Z,10.83
2022-12-07T15:05:31.273Z,8.93
2022-12-07T15:08:17.819Z,7.60
2022-12-07T15:11:04.259Z,7.53
2022-12-07T15:14:10.464Z,8.13
2022-12-07T15:17:21.956Z,9.17
2022-12-07T15:20:03.219Z,18.67
2022-12-07T15:22:49.491Z,9.97
2022-12-07T15:25:36.025Z,12.60
2022-12-07T15:28:22.627Z,12.00
2022-12-07T15:31:39.105Z,9.43
2022-12-07T15:34:21.114Z,12.40
2022-12-07T15:37:07.969Z,15.60
2022-12-07T15:39:54.119Z,14.47
2022-12-07T15:42:40.272Z,14.57
2022-12-07T15:45:25.562Z,14.33
2022-12-07T15:48:29.668Z,10.70
2022-12-07T15:51:20.228Z,9.63
2022-12-07T15:54:09.808Z,11.90
2022-12-07T15:56:56.794Z,16.00
2022-12-07T15:59:42.939Z,15.70
2022-12-07T16:02:29.404Z,18.60
2022-12-07T16:05:17.249Z,15.40
2022-12-07T16:08:03.343Z,14.43
2022-12-07T16:10:50.083Z,14.83
2022-12-07T16:13:36.773Z,20.20
2022-12-07T16:16:23.625Z,18.17
2022-12-07T16:19:10.460Z,17.77
2022-12-07T16:21:58.298Z,20.47
2022-12-07T16:24:44.846Z,20.33
2022-12-07T16:27:31.619Z,30.93
2022-12-07T16:30:18.332Z,27.60
2022-12-07T16:33:05.017Z,34.23
2022-12-07T16:35:51.294Z,32.60
2022-12-07T16:38:39.372Z,30.93
2022-12-07T16:41:27.416Z,33.57
2022-12-07T16:44:14.551Z,36.20
2022-12-07T16:47:01.838Z,38.80
2022-12-07T16:49:49.348Z,27.47
2022-12-07T16:52:35.545Z,24.80
2022-12-07T16:55:23.215Z,24.23
2022-12-07T16:58:10.119Z,20.97
2022-12-07T17:00:56.315Z,18.23
2022-12-07T17:03:43.424Z,21.67
2022-12-07T17:06:31.949Z,23.00
2022-12-07T17:09:21.377Z,20.73
2022-12-07T17:12:09.542Z,20.57
2022-12-07T17:15:13.647Z,24.87
2022-12-07T17:18:00.323Z,22.83
2022-12-07T17:20:46.537Z,22.43
2022-12-07T17:23:33.187Z,21.47
2022-12-07T17:26:20.814Z,14.87
2022-12-07T17:29:09.696Z,11.87
2022-12-07T17:31:55.992Z,11.37
2022-12-07T17:34:42.385Z,14.37
2022-12-07T17:37:28.641Z,14.13
2022-12-07T17:40:15.308Z,13.00
2022-12-07T17:43:01.556Z,13.13
2022-12-07T17:45:49.661Z,11.63
2022-12-07T17:48:36.245Z,14.80
2022-12-07T17:51:39.859Z,17.97
2022-12-07T17:54:26.352Z,15.23
2022-12-07T17:57:12.636Z,14.20
2022-12-07T17:59:59.166Z,14.40
2022-12-07T18:02:47.309Z,27.50
2022-12-07T18:05:34.437Z,26.20
2022-12-07T18:08:20.721Z,22.13
2022-12-07T18:11:07.575Z,34.13
2022-12-07T18:13:54.849Z,40.43
2022-12-07T18:16:41.343Z,27.57
2022-12-07T18:19:29.231Z,23.73
2022-12-07T18:22:15.311Z,15.13
2022-12-07T18:25:01.917Z,21.93
2022-12-07T18:27:48.373Z,17.37
2022-12-07T18:31:12.600Z,16.63
2022-12-07T18:33:41.819Z,13.07
2022-12-07T18:36:29.523Z,9.57
2022-12-07T18:39:16.369Z,12.83
2022-12-07T18:42:03.248Z,12.77
2022-12-07T18:44:49.396Z,15.13
2022-12-07T18:47:35.767Z,17.93
2022-12-07T18:50:22.244Z,24.50
2022-12-07T18:53:10.311Z,24.33
2022-12-07T18:56:02.097Z,19.73
2022-12-07T18:59:07.923Z,17.20
2022-12-07T19:01:55.271Z,13.50
2022-12-07T19:04:41.737Z,12.00
2022-12-07T19:07:28.250Z,11.20
2022-12-07T19:10:16.226Z,13.50
2022-12-07T19:13:02.813Z,17.53
2022-12-07T19:15:49.249Z,17.40
2022-12-07T19:18:35.511Z,19.70
2022-12-07T19:21:21.876Z,20.73
2022-12-07T19:24:11.845Z,18.73
2022-12-07T19:26:59.674Z,19.57
2022-12-07T19:29:46.006Z,18.13
2022-12-07T19:32:32.654Z,14.97
2022-12-07T19:35:18.836Z,19.87
2022-12-07T19:38:04.962Z,12.13
2022-12-07T19:40:51.482Z,17.53
2022-12-07T19:43:39.375Z,14.87
2022-12-07T19:46:25.866Z,13.93
2022-12-07T19:49:14.438Z,17.20
2022-12-07T19:52:01.435Z,10.17
2022-12-07T19:54:48.105Z,8.80
2022-12-07T19:57:34.340Z,10.17
2022-12-07T20:00:22.551Z,9.20
2022-12-07T20:03:08.989Z,9.53
2022-12-07T20:05:56.916Z,11.33
2022-12-07T20:08:43.226Z,10.77
2022-12-07T20:11:46.967Z,12.27
2022-12-07T20:14:33.544Z,8.50
2022-12-07T20:17:21.488Z,8.83
2022-12-07T20:20:08.259Z,10.63
2022-12-07T20:22:54.351Z,9.93
2022-12-07T20:25:40.902Z,9.30
2022-12-07T20:28:26.998Z,11.30
2022-12-07T20:31:13.893Z,10.33
2022-12-07T20:34:02.603Z,9.40
2022-12-07T20:36:48.821Z,10.53
2022-12-07T20:39:35.034Z,10.90
2022-12-07T20:42:39.467Z,9.30
2022-12-07T20:45:25.993Z,8.03
2022-12-07T20:48:12.102Z,8.03
2022-12-07T20:51:07.087Z,9.07
2022-12-07T20:53:53.382Z,6.90
2022-12-07T20:56:40.347Z,8.93
2022-12-07T20:59:26.758Z,10.93
2022-12-07T21:02:13.585Z,10.03
2022-12-07T21:05:00.045Z,15.30
2022-12-07T21:07:47.866Z,15.27
2022-12-07T21:10:34.402Z,12.60
2022-12-07T21:13:20.868Z,11.83
2022-12-07T21:16:11.278Z,12.93
2022-12-07T21:18:58.900Z,12.47
2022-12-07T21:21:45.148Z,14.07
2022-12-07T21:24:33.240Z,11.40
2022-12-07T21:27:19.742Z,10.93
2022-12-07T21:30:06.642Z,11.80
2022-12-07T21:32:52.819Z,11.23
2022-12-07T21:35:39.750Z,12.27
2022-12-07T21:38:26.323Z,9.37
2022-12-07T21:41:15.345Z,9.20
2022-12-07T21:44:02.117Z,8.83
2022-12-07T21:46:48.230Z,8.93
2022-12-07T21:49:36.431Z,8.47
2022-12-07T21:52:23.057Z,9.47
2022-12-07T21:55:09.552Z,6.67
2022-12-07T21:57:57.483Z,5.77
2022-12-07T22:00:43.985Z,6.13
2022-12-07T22:03:30.107Z,7.97
2022-12-07T22:06:17.108Z,5.03
2022-12-07T22:09:03.361Z,4.43
2022-12-07T22:11:49.707Z,4.80
2022-12-07T22:14:55.125Z,8.23
2022-12-07T22:17:41.274Z,9.87
2022-12-07T22:20:27.464Z,9.57
2022-12-07T22:23:13.577Z,8.63
2022-12-07T22:25:59.823Z,8.80
2022-12-07T22:28:46.222Z,8.33
2022-12-07T22:31:34.041Z,9.53
2022-12-07T22:34:20.598Z,10.67
2022-12-07T22:37:07.166Z,9.70
2022-12-07T22:39:53.495Z,8.60
2022-12-07T22:42:39.699Z,9.73
2022-12-07T22:45:25.869Z,8.67
2022-12-07T22:48:13.604Z,7.63
2022-12-07T22:51:00.179Z,9.07
2022-12-07T22:53:46.619Z,7.87
2022-12-07T22:56:34.339Z,9.37
2022-12-07T22:59:20.905Z,6.40
2022-12-07T23:02:07.340Z,10.10
2022-12-07T23:04:54.816Z,8.60
2022-12-07T23:07:41.379Z,7.93
2022-12-07T23:10:27.646Z,7.07
2022-12-07T23:13:34.155Z,7.37
2022-12-07T23:16:20.737Z,6.50
2022-12-07T23:19:07.383Z,7.33
2022-12-07T23:21:55.178Z,4.97
2022-12-07T23:24:41.245Z,6.67
2022-12-07T23:27:27.456Z,5.90
2022-12-07T23:30:13.883Z,4.20
2022-12-07T23:33:00.109Z,3.17
2022-12-07T23:35:46.975Z,3.63
2022-12-07T23:38:34.561Z,3.80
2022-12-07T23:41:22.622Z,5.60
2022-12-07T23:44:08.924Z,4.40
2022-12-07T23:46:55.263Z,4.57
2022-12-07T23:49:41.615Z,4.07
2022-12-07T23:52:28.270Z,3.67
2022-12-07T23:55:17.021Z,6.80
2022-12-07T23:58:03.348Z,4.07
